^^
Saratoga-Weather Station Historical Data
Daily Summary for August 10, 2020 Units:  English    Metric   Both
Daily Weekly Monthly Yearly Custom
  High: Low: Average:
Temperature: 66 °F 55.2 °F 60.1 °F
Dew Point: 56.5 °F 52.2 °F 54.1 °F
Humidity: 96% 62% 82%
Wind Speed: 6.9mph 0mph 1.4mph
Wind Gust: 9mph - -
Wind- - SW
Pressure: 30 in 29.9 in -
Precipitation: 0.31 in    
Historical Graphs
 
 
Tabular Data for August 10, 2020
Time Temperature Dew Point Pressure Wind Wind Speed Wind Gust Humidity Rainfall Rate (Hourly) solar
00:00 58.3 °F 52.5 °F 30 in Calm   1 mph 81% 0 in 0 W/m2
00:05 58.1 °F 52.3 °F 30 in East 0.9 mph 1 mph 81% 0 in 0 W/m2
00:10 57.9 °F 52.5 °F 30 in Calm   2 mph 82% 0 in 0 W/m2
00:15 57.9 °F 52.5 °F 30 in NW 2.9 mph 3 mph 82% 0 in 0 W/m2
00:20 57.9 °F 52.5 °F 30 in West 2 mph 3 mph 82% 0 in 0 W/m2
00:30 57.7 °F 52.3 °F 30 in WNW 2 mph 3 mph 82% 0 in 0 W/m2
00:35 57.7 °F 52.7 °F 30 in WNW 0.9 mph 3 mph 83% 0 in 0 W/m2
00:40 57.7 °F 52.7 °F 30 in North 4 mph 4 mph 83% 0 in 0 W/m2
00:45 57.7 °F 52.7 °F 30 in NW 0.9 mph 6 mph 83% 0 in 0 W/m2
00:50 57.7 °F 52.7 °F 30 in WNW 2.9 mph 3 mph 83% 0 in 0 W/m2
01:15 57.6 °F 52.7 °F 30 in NNE 4.9 mph 5 mph 84% 0 in 0 W/m2
01:20 57.6 °F 52.7 °F 30 in Calm   4 mph 84% 0 in 0 W/m2
01:25 57.6 °F 52.7 °F 30 in WNW 2 mph 2 mph 84% 0 in 0 W/m2
01:30 57.6 °F 53.1 °F 30 in West 2 mph 4 mph 85% 0 in 0 W/m2
01:35 57.6 °F 53.1 °F 30 in NNW 2 mph 3 mph 85% 0 in 0 W/m2
01:40 57.6 °F 53.1 °F 30 in East 2 mph 2 mph 85% 0 in 0 W/m2
01:45 57.4 °F 52.9 °F 30 in WNW 2.9 mph 4 mph 85% 0 in 0 W/m2
01:50 57.4 °F 53.2 °F 30 in North 0.9 mph 3 mph 86% 0 in 0 W/m2
01:55 57.4 °F 53.2 °F 30 in Calm   4 mph 86% 0 in 0 W/m2
02:00 57.4 °F 53.2 °F 30 in Calm   2 mph 86% 0 in 0 W/m2
02:05 57.2 °F 53.1 °F 30 in Calm   4 mph 86% 0 in 0 W/m2
02:10 57.2 °F 53.1 °F 30 in Calm   1 mph 86% 0 in 0 W/m2
02:15 57.2 °F 53.1 °F 30 in NE 2 mph 5 mph 86% 0 in 0 W/m2
02:20 57 °F 52.9 °F 30 in ENE 0.9 mph 2 mph 86% 0 in 0 W/m2
02:25 57 °F 53.2 °F 30 in NE 0.9 mph 5 mph 87% 0 in 0 W/m2
02:30 57 °F 53.2 °F 30 in East 0.9 mph 3 mph 87% 0 in 0 W/m2
02:35 57 °F 53.2 °F 30 in East 2 mph 6 mph 87% 0 in 0 W/m2
02:40 57 °F 53.2 °F 30 in ENE 0.9 mph 2 mph 87% 0 in 0 W/m2
02:45 56.8 °F 53.1 °F 30 in Calm   1 mph 87% 0 in 0 W/m2
02:50 56.8 °F 53.1 °F 30 in SSE 0.9 mph 2 mph 87% 0 in 0 W/m2
02:56 56.8 °F 53.1 °F 30 in Calm   1 mph 87% 0 in 0 W/m2
03:01 56.8 °F 53.1 °F 30 in Calm   2 mph 87% 0 in 0 W/m2
03:06 56.7 °F 52.9 °F 30 in WNW 0.9 mph 3 mph 87% 0 in 0 W/m2
03:11 56.7 °F 53.1 °F 30 in Calm   2 mph 88% 0 in 0 W/m2
03:16 56.7 °F 53.1 °F 30 in Calm   1 mph 88% 0 in 0 W/m2
03:21 56.5 °F 52.9 °F 30 in Calm   2 mph 88% 0 in 0 W/m2
03:26 56.5 °F 52.9 °F 30 in NE 0.9 mph 2 mph 88% 0 in 0 W/m2
03:31 56.5 °F 52.9 °F 30 in Calm   2 mph 88% 0 in 0 W/m2
03:36 56.5 °F 52.9 °F 30 in Calm   2 mph 88% 0 in 0 W/m2
03:41 56.5 °F 53.2 °F 30 in SE 0.9 mph 2 mph 89% 0 in 0 W/m2
03:46 56.5 °F 53.2 °F 30 in SE 2 mph 2 mph 89% 0 in 0 W/m2
03:51 56.5 °F 53.2 °F 30 in WNW 0.9 mph 3 mph 89% 0 in 0 W/m2
03:56 56.5 °F 53.2 °F 30 in Calm   6 mph 89% 0 in 0 W/m2
04:01 56.5 °F 53.2 °F 30 in West 0.9 mph 2 mph 89% 0 in 0 W/m2
04:06 56.5 °F 52.9 °F 30 in West 0.9 mph 5 mph 88% 0 in 0 W/m2
04:11 56.5 °F 52.9 °F 30 in WNW 0.9 mph 4 mph 88% 0 in 0 W/m2
04:16 56.5 °F 52.9 °F 30 in Calm   1 mph 88% 0 in 0 W/m2
04:21 56.5 °F 52.9 °F 29.9 in Calm   4 mph 88% 0 in 0 W/m2
04:26 56.5 °F 52.9 °F 30 in ENE 0.9 mph 1 mph 88% 0 in 0 W/m2
04:31 56.5 °F 52.9 °F 29.9 in Calm   1 mph 88% 0 in 0 W/m2
04:36 56.3 °F 52.9 °F 29.9 in NE 0.9 mph 1 mph 88% 0 in 0 W/m2
04:41 56.3 °F 52.9 °F 29.9 in Calm     88% 0 in 0 W/m2
04:46 56.1 °F 52.7 °F 29.9 in Calm     88% 0 in 0 W/m2
04:51 56.1 °F 52.9 °F 29.9 in Calm   1 mph 89% 0 in 0 W/m2
04:56 56.1 °F 52.9 °F 29.9 in NE 2 mph 4 mph 89% 0 in 0 W/m2
05:01 56.1 °F 52.9 °F 29.9 in NNE 0.9 mph 2 mph 89% 0 in 0 W/m2
05:06 56.1 °F 52.9 °F 29.9 in Calm   3 mph 89% 0 in 0 W/m2
05:12 56.1 °F 52.9 °F 29.9 in North 0.9 mph 1 mph 89% 0 in 0 W/m2
05:17 56.1 °F 52.9 °F 29.9 in Calm     89% 0 in 0 W/m2
05:22 56.1 °F 52.9 °F 29.9 in Calm     89% 0 in 0 W/m2
05:27 55.9 °F 52.7 °F 29.9 in Calm     89% 0 in 0 W/m2
05:32 55.9 °F 52.7 °F 29.9 in Calm     89% 0 in 0 W/m2
05:37 55.9 °F 52.7 °F 29.9 in Calm     89% 0 in 5 W/m2
05:42 55.8 °F 52.5 °F 29.9 in East 0.9 mph 2 mph 89% 0 in 7 W/m2
05:47 55.8 °F 52.5 °F 29.9 in Calm     89% 0 in 9 W/m2
05:52 55.6 °F 52.3 °F 29.9 in SW 2 mph 2 mph 89% 0 in 12 W/m2
05:57 55.4 °F 52.2 °F 29.9 in SW 0.9 mph 1 mph 89% 0 in 18 W/m2
06:02 55.2 °F 52.3 °F 29.9 in Calm   3 mph 90% 0 in 25 W/m2
06:07 55.2 °F 52.3 °F 29.9 in SSW 0.9 mph 2 mph 90% 0 in 30 W/m2
06:12 55.2 °F 52.3 °F 29.9 in Calm   3 mph 90% 0 in 37 W/m2
06:17 55.2 °F 52.3 °F 29.9 in Calm   1 mph 90% 0 in 39 W/m2
06:22 55.2 °F 52.3 °F 29.9 in Calm     90% 0 in 42 W/m2
06:27 55.2 °F 52.3 °F 29.9 in Calm     90% 0 in 42 W/m2
06:32 55.4 °F 52.5 °F 29.9 in WNW 0.9 mph 2 mph 90% 0 in 46 W/m2
06:37 55.6 °F 52.7 °F 29.9 in Calm   2 mph 90% 0 in 49 W/m2
06:42 55.6 °F 52.7 °F 29.9 in WNW 0.9 mph 2 mph 90% 0 in 56 W/m2
06:47 55.8 °F 52.9 °F 29.9 in WNW 0.9 mph 2 mph 90% 0 in 67 W/m2
06:52 55.9 °F 53.1 °F 29.9 in Calm     90% 0 in 70 W/m2
06:57 55.9 °F 53.1 °F 29.9 in Calm   2 mph 90% 0 in 81 W/m2
07:02 56.1 °F 53.2 °F 29.9 in Calm   1 mph 90% 0 in 100 W/m2
07:07 56.5 °F 53.6 °F 29.9 in East 0.9 mph 2 mph 90% 0 in 104 W/m2
07:12 56.7 °F 53.4 °F 29.9 in ENE 2 mph 2 mph 89% 0 in 107 W/m2
07:17 56.8 °F 53.6 °F 29.9 in ENE 2 mph 4 mph 89% 0 in 100 W/m2
07:22 56.8 °F 53.2 °F 29.9 in Calm   2 mph 88% 0 in 86 W/m2
07:27 56.8 °F 53.2 °F 29.9 in ENE 0.9 mph 4 mph 88% 0 in 72 W/m2
07:32 57 °F 53.4 °F 29.9 in North 2 mph 2 mph 88% 0 in 69 W/m2
07:38 57 °F 53.4 °F 29.9 in East 0.9 mph 1 mph 88% 0 in 67 W/m2
07:43 57 °F 53.4 °F 29.9 in East 0.9 mph 1 mph 88% 0 in 74 W/m2
07:48 57 °F 53.4 °F 29.9 in ENE 2 mph 2 mph 88% 0 in 81 W/m2
07:53 56.8 °F 53.2 °F 29.9 in East 4 mph 4 mph 88% 0 in 90 W/m2
07:58 56.8 °F 53.2 °F 29.9 in Calm   2 mph 88% 0 in 100 W/m2
08:03 56.8 °F 53.2 °F 29.9 in East 0.9 mph 2 mph 88% 0 in 118 W/m2
08:08 57 °F 53.4 °F 29.9 in ENE 0.9 mph 1 mph 88% 0 in 123 W/m2
08:13 57 °F 53.4 °F 29.9 in West 2 mph 5 mph 88% 0 in 142 W/m2
08:18 57.2 °F 53.6 °F 29.9 in NW 0.9 mph 6 mph 88% 0 in 200 W/m2
08:23 57.6 °F 54 °F 29.9 in North 0.9 mph 3 mph 88% 0 in 163 W/m2
08:28 57.7 °F 54.1 °F 29.9 in North 2 mph 6 mph 88% 0 in 158 W/m2
08:33 57.9 °F 54.1 °F 29.9 in WNW 0.9 mph 2 mph 87% 0 in 274 W/m2
08:38 58.3 °F 54.5 °F 29.9 in East 0.9 mph 4 mph 87% 0 in 260 W/m2
08:43 58.6 °F 54.5 °F 29.9 in WNW 0.9 mph 3 mph 86% 0 in 192 W/m2
08:48 58.8 °F 54.7 °F 29.9 in WNW 0.9 mph 3 mph 86% 0 in 199 W/m2
08:53 59 °F 54.5 °F 29.9 in West 2 mph 2 mph 85% 0 in 195 W/m2
08:58 59.2 °F 54.7 °F 29.9 in West 0.9 mph 4 mph 85% 0 in 178 W/m2
09:03 59.2 °F 54.3 °F 29.9 in Calm   2 mph 84% 0 in 174 W/m2
09:08 59.4 °F 54.9 °F 29.9 in ENE 2.9 mph 4 mph 85% 0 in 153 W/m2
09:13 59.4 °F 54.5 °F 29.9 in East 0.9 mph 2 mph 84% 0 in 137 W/m2
09:18 59.5 °F 54.7 °F 29.9 in Calm   1 mph 84% 0 in 137 W/m2
09:23 59.5 °F 54.7 °F 29.9 in ENE 0.9 mph 3 mph 84% 0 in 153 W/m2
09:28 59.5 °F 54.3 °F 29.9 in NE 0.9 mph 6 mph 83% 0 in 174 W/m2
09:33 59.5 °F 54.7 °F 29.9 in NE 0.9 mph 3 mph 84% 0 in 192 W/m2
09:38 59.5 °F 54.7 °F 29.9 in North 2 mph 4 mph 84% 0 in 213 W/m2
09:43 59.7 °F 54.9 °F 29.9 in Calm   1 mph 84% 0 in 209 W/m2
09:48 60.1 °F 55.2 °F 29.9 in WNW 2 mph 7 mph 84% 0 in 216 W/m2
09:53 59.7 °F 54.9 °F 29.9 in WNW 2.9 mph 6 mph 84% 0 in 218 W/m2
09:58 59.7 °F 54.9 °F 29.9 in NNW 2 mph 3 mph 84% 0 in 257 W/m2
10:03 60.1 °F 55.2 °F 29.9 in North 0.9 mph 3 mph 84% 0 in 323 W/m2
10:08 60.3 °F 55 °F 29.9 in NNE 0.9 mph 2 mph 83% 0 in 315 W/m2
10:13 60.4 °F 55.2 °F 29.9 in WNW 2.9 mph 4 mph 83% 0 in 334 W/m2
10:18 60.6 °F 55.4 °F 29.9 in North 2.9 mph 3 mph 83% 0 in 353 W/m2
10:23 61.2 °F 55.6 °F 29.9 in NW 0.9 mph 3 mph 82% 0 in 348 W/m2
10:28 61.2 °F 55.2 °F 29.9 in North 0.9 mph 4 mph 81% 0 in 341 W/m2
10:33 61.5 °F 55.6 °F 29.9 in Calm     81% 0 in 311 W/m2
10:38 61.9 °F 55.6 °F 29.9 in NE 0.9 mph 2 mph 80% 0 in 304 W/m2
10:43 62.2 °F 55.6 °F 29.9 in NNW 0.9 mph 3 mph 79% 0 in 320 W/m2
10:48 62.2 °F 55.2 °F 29.9 in NE 0.9 mph 1 mph 78% 0 in 325 W/m2
10:53 62.4 °F 55.8 °F 29.9 in Calm   1 mph 79% 0 in 332 W/m2
10:58 63 °F 55.9 °F 29.9 in North 0.9 mph 3 mph 78% 0 in 348 W/m2
11:03 63.1 °F 55.8 °F 29.9 in South 0.9 mph 2 mph 77% 0 in 371 W/m2
11:09 63 °F 54.9 °F 29.9 in NNW 2 mph 3 mph 75% 0 in 450 W/m2
11:14 63.1 °F 54.7 °F 29.9 in NNW 2 mph 3 mph 74% 0 in 390 W/m2
11:19 63.3 °F 54.9 °F 29.9 in West 0.9 mph 6 mph 74% 0 in 631 W/m2
11:24 63.7 °F 54.9 °F 29.9 in West 6 mph 6 mph 73% 0 in 796 W/m2
11:29 63.9 °F 53.1 °F 29.9 in WSW 4.9 mph 6 mph 68% 0 in 381 W/m2
11:34 63.7 °F 52.9 °F 29.9 in NW 2 mph 2 mph 68% 0 in 406 W/m2
11:39 64.2 °F 53.1 °F 29.9 in South 0.9 mph 2 mph 67% 0 in 977 W/m2
11:44 65.1 °F 53.1 °F 29.9 in NNW 2.9 mph 3 mph 65% 0 in 461 W/m2
11:49 65.3 °F 53.6 °F 29.9 in Calm   2 mph 66% 0 in 220 W/m2
11:54 64.9 °F 53.2 °F 29.9 in NW 0.9 mph 4 mph 66% 0 in 162 W/m2
11:59 64.4 °F 53.6 °F 29.9 in NNW 0.9 mph 3 mph 68% 0 in 128 W/m2
12:04 64.2 °F 53.4 °F 29.9 in ENE 2 mph 4 mph 68% 0 in 153 W/m2
12:09 63.9 °F 53.4 °F 29.9 in NNW 2.9 mph 3 mph 69% 0 in 160 W/m2
12:14 63.7 °F 52.9 °F 29.9 in ENE 4 mph 5 mph 68% 0 in 155 W/m2
12:19 63.7 °F 53.8 °F 29.9 in North 0.9 mph 2 mph 70% 0 in 193 W/m2
12:24 63.7 °F 53.2 °F 29.9 in NE 0.9 mph 4 mph 69% 0 in 211 W/m2
12:29 63.9 °F 54.3 °F 29.9 in NNE 0.9 mph 1 mph 71% 0 in 209 W/m2
12:34 63.9 °F 54 °F 29.9 in NE 2 mph 2 mph 70% 0 in 213 W/m2
12:39 64 °F 53.6 °F 29.9 in NW 0.9 mph 3 mph 69% 0 in 227 W/m2
12:44 64 °F 53.6 °F 29.9 in West 2 mph 3 mph 69% 0 in 214 W/m2
12:49 64 °F 53.6 °F 29.9 in North 0.9 mph 3 mph 69% 0 in 221 W/m2
12:54 63.9 °F 54 °F 29.9 in Calm   1 mph 70% 0 in 237 W/m2
12:59 64 °F 54.1 °F 29.9 in NW 0.9 mph 3 mph 70% 0 in 274 W/m2
13:04 64.2 °F 53.8 °F 29.9 in North 2 mph 5 mph 69% 0 in 308 W/m2
13:09 64.2 °F 54.3 °F 29.9 in NNE 0.9 mph 2 mph 70% 0 in 313 W/m2
13:14 64.6 °F 54.1 °F 29.9 in North 0.9 mph 7 mph 69% 0 in 318 W/m2
13:19 64.8 °F 54 °F 29.9 in Calm   2 mph 68% 0 in 323 W/m2
13:24 64.8 °F 54 °F 29.9 in NNW 2 mph 5 mph 68% 0 in 330 W/m2
13:29 64.9 °F 54.1 °F 29.9 in WNW 2.9 mph 4 mph 68% 0 in 341 W/m2
13:34 64.8 °F 54 °F 29.9 in WNW 2.9 mph 4 mph 68% 0 in 385 W/m2
13:39 64.8 °F 54 °F 29.9 in West 2.9 mph 6 mph 68% 0 in 362 W/m2
13:44 64.8 °F 54 °F 29.9 in WSW 2 mph 6 mph 68% 0 in 497 W/m2
13:49 64.9 °F 52.9 °F 29.9 in WNW 6.9 mph 8 mph 65% 0 in 626 W/m2
13:54 64.9 °F 52.9 °F 29.9 in WNW 4 mph 6 mph 65% 0 in 353 W/m2
13:59 64.9 °F 52.5 °F 29.9 in NW 4 mph 4 mph 64% 0 in 360 W/m2
14:04 65.3 °F 52.9 °F 29.9 in NW 0.9 mph 2 mph 64% 0 in 367 W/m2
14:09 65.7 °F 53.2 °F 29.9 in NW 0.9 mph 3 mph 64% 0 in 376 W/m2
14:14 65.8 °F 52.9 °F 29.9 in SE 2 mph 3 mph 63% 0 in 345 W/m2
14:19 66 °F 52.7 °F 29.9 in NNW 2 mph 3 mph 62% 0 in 325 W/m2
14:24 66 °F 53.1 °F 29.9 in North 0.9 mph 2 mph 63% 0 in 285 W/m2
14:29 66 °F 53.1 °F 29.9 in ENE 4.9 mph 6 mph 63% 0 in 234 W/m2
14:34 65.8 °F 53.8 °F 29.9 in West 4 mph 6 mph 65% 0 in 155 W/m2
14:39 65.5 °F 53.4 °F 29.9 in WNW 2.9 mph 7 mph 65% 0 in 169 W/m2
14:44 65.1 °F 53.1 °F 29.9 in West 2.9 mph 6 mph 65% 0 in 165 W/m2
14:49 64.9 °F 53.2 °F 29.9 in WNW 2.9 mph 7 mph 66% 0 in 183 W/m2
14:54 64.9 °F 53.8 °F 29.9 in North 0.9 mph 3 mph 67% 0 in 200 W/m2
14:59 64.9 °F 53.8 °F 29.9 in West 2 mph 6 mph 67% 0 in 251 W/m2
15:05 65.1 °F 54 °F 29.9 in NW 2.9 mph 4 mph 67% 0 in 288 W/m2
15:10 65.1 °F 54 °F 29.9 in WNW 2.9 mph 5 mph 67% 0 in 230 W/m2
15:15 64.9 °F 53.8 °F 29.9 in NW 2 mph 6 mph 67% 0 in 165 W/m2
15:20 64.9 °F 53.8 °F 29.9 in NNW 0.9 mph 3 mph 67% 0 in 98 W/m2
15:25 64.9 °F 53.8 °F 29.9 in WNW 2 mph 5 mph 67% 0 in 90 W/m2
15:30 64.8 °F 53.6 °F 29.9 in NW 2.9 mph 4 mph 67% 0 in 98 W/m2
15:35 64.6 °F 53.8 °F 29.9 in NNW 0.9 mph 4 mph 68% 0 in 113 W/m2
15:40 64.4 °F 53.6 °F 29.9 in WNW 4 mph 4 mph 68% 0 in 127 W/m2
15:45 64 °F 53.6 °F 29.9 in West 4 mph 9 mph 69% 0 in 144 W/m2
15:50 63.7 °F 53.8 °F 29.9 in NW 2 mph 7 mph 70% 0 in 167 W/m2
15:55 63.3 °F 53.8 °F 29.9 in WNW 4 mph 9 mph 71% 0 in 169 W/m2
16:00 63.1 °F 54.3 °F 29.9 in NW 4.9 mph 5 mph 73% 0 in 151 W/m2
16:05 62.6 °F 54.1 °F 29.9 in NNW 2 mph 5 mph 74% 0 in 135 W/m2
16:10 62.2 °F 54.5 °F 29.9 in NW 2 mph 5 mph 76% 0 in 144 W/m2
16:15 62.1 °F 55 °F 29.9 in West 2.9 mph 5 mph 78% 0 in 148 W/m2
16:20 61.9 °F 54.9 °F 29.9 in West 6.9 mph 7 mph 78% 0 in 149 W/m2
16:25 61.9 °F 54.9 °F 29.9 in West 6 mph 7 mph 78% 0 in 171 W/m2
16:30 61.9 °F 55.2 °F 29.9 in West 2.9 mph 6 mph 79% 0 in 176 W/m2
16:35 62.1 °F 55.4 °F 29.9 in West 4 mph 6 mph 79% 0 in 183 W/m2
16:40 62.2 °F 54.9 °F 29.9 in WNW 2 mph 4 mph 77% 0 in 200 W/m2
16:45 62.4 °F 55 °F 29.9 in WNW 2 mph 6 mph 77% 0 in 241 W/m2
16:50 62.8 °F 55 °F 29.9 in WNW 2 mph 7 mph 76% 0 in 257 W/m2
16:55 63.1 °F 55.4 °F 29.9 in WNW 2.9 mph 3 mph 76% 0 in 278 W/m2
17:00 63.3 °F 54.5 °F 29.9 in West 2.9 mph 4 mph 73% 0 in 251 W/m2
17:05 63.5 °F 54.7 °F 29.9 in West 2.9 mph 4 mph 73% 0 in 267 W/m2
17:10 63.9 °F 54.7 °F 29.9 in WNW 4 mph 4 mph 72% 0 in 265 W/m2
17:15 64 °F 54.9 °F 29.9 in WNW 0.9 mph 2 mph 72% 0 in 179 W/m2
17:20 64 °F 55.2 °F 29.9 in NNW 2 mph 4 mph 73% 0 in 183 W/m2
17:25 64 °F 55.9 °F 29.9 in North 2 mph 5 mph 75% 0 in 195 W/m2
17:30 63.7 °F 55.9 °F 29.9 in NNW 0.9 mph 3 mph 76% 0 in 211 W/m2
17:35 63.5 °F 56.1 °F 29.9 in NW 4 mph 8 mph 77% 0 in 162 W/m2
17:40 63.1 °F 55.4 °F 29.9 in WNW 4 mph 4 mph 76% 0 in 181 W/m2
17:45 63 °F 55.2 °F 29.9 in NNE 4.9 mph 7 mph 76% 0 in 195 W/m2
17:50 63 °F 55.2 °F 29.9 in West 6.9 mph 9 mph 76% 0 in 186 W/m2
17:55 63 °F 55.2 °F 29.9 in NW 4.9 mph 8 mph 76% 0 in 167 W/m2
18:00 63 °F 55.2 °F 29.9 in NNW 0.9 mph 4 mph 76% 0 in 158 W/m2
18:05 63 °F 55.6 °F 29.9 in WNW 4 mph 5 mph 77% 0 in 132 W/m2
18:10 62.8 °F 55 °F 29.9 in WNW 2 mph 5 mph 76% 0 in 125 W/m2
18:15 62.8 °F 54.7 °F 29.9 in WNW 0.9 mph 8 mph 75% 0 in 134 W/m2
18:20 62.8 °F 54.7 °F 29.9 in WNW 2 mph 4 mph 75% 0 in 135 W/m2
18:25 63 °F 54.9 °F 29.9 in NW 2 mph 4 mph 75% 0 in 132 W/m2
18:30 63.1 °F 55 °F 29.9 in WNW 2 mph 3 mph 75% 0 in 127 W/m2
18:35 63.5 °F 55 °F 29.9 in NW 2 mph 5 mph 74% 0 in 125 W/m2
18:40 63.7 °F 55.2 °F 29.9 in NW 0.9 mph 3 mph 74% 0 in 123 W/m2
18:45 63.7 °F 55.2 °F 29.9 in West 0.9 mph 5 mph 74% 0 in 118 W/m2
18:50 63.9 °F 55 °F 29.9 in Calm   2 mph 73% 0 in 107 W/m2
18:55 63.9 °F 54.7 °F 29.9 in WNW 2.9 mph 5 mph 72% 0 in 104 W/m2
19:00 63.9 °F 54.7 °F 29.9 in Calm   2 mph 72% 0 in 97 W/m2
19:06 63.9 °F 54.3 °F 29.9 in NW 2 mph 3 mph 71% 0 in 90 W/m2
19:11 63.9 °F 54.7 °F 29.9 in Calm   3 mph 72% 0 in 83 W/m2
19:16 63.9 °F 55 °F 29.9 in Calm   1 mph 73% 0 in 76 W/m2
19:21 63.9 °F 54.7 °F 29.9 in NNW 2 mph 3 mph 72% 0 in 67 W/m2
19:26 63.9 °F 55.4 °F 29.9 in WNW 2 mph 2 mph 74% 0 in 62 W/m2
19:31 63.7 °F 55.2 °F 29.9 in West 4 mph 4 mph 74% 0 in 51 W/m2
19:36 63.7 °F 55.2 °F 29.9 in West 2.9 mph 3 mph 74% 0 in 49 W/m2
19:41 63.3 °F 54.9 °F 29.9 in WSW 0.9 mph 3 mph 74% 0 in 49 W/m2
19:46 63.3 °F 54.9 °F 29.9 in WNW 2 mph 3 mph 74% 0 in 39 W/m2
19:51 63.3 °F 55.2 °F 29.9 in Calm   3 mph 75% 0 in 32 W/m2
19:56 63.3 °F 55.2 °F 29.9 in NE 0.9 mph 2 mph 75% 0 in 26 W/m2
20:01 63.3 °F 55.2 °F 29.9 in NE 2 mph 3 mph 75% 0 in 16 W/m2
20:06 63 °F 55.9 °F 29.9 in ENE 4 mph 5 mph 78% 0 in 11 W/m2
20:11 62.4 °F 56.5 °F 29.9 in ESE 0.9 mph 5 mph 81% 0.01 in 11 W/m2
20:16 61.5 °F 56.3 °F 29.9 in SE 0.9 mph 2 mph 83% 0.06 in 18 W/m2
20:21 60.8 °F 56.3 °F 29.9 in SE 0.9 mph 1 mph 85% 0.1 in 21 W/m2
20:26 60.3 °F 56.3 °F 29.9 in Calm   1 mph 87% 0.13 in 21 W/m2
20:31 59.7 °F 56.5 °F 29.9 in Calm   1 mph 89% 0.14 in 19 W/m2
20:36 59.4 °F 56.5 °F 29.9 in Calm   1 mph 90% 0.15 in 18 W/m2
20:41 59 °F 56.1 °F 29.9 in East 0.9 mph 2 mph 90% 0.15 in 16 W/m2
20:46 58.8 °F 56.1 °F 29.9 in Calm   1 mph 91% 0.17 in 14 W/m2
20:51 58.6 °F 55.9 °F 29.9 in SW 0.9 mph 2 mph 91% 0.17 in 12 W/m2
20:56 58.5 °F 56.1 °F 29.9 in Calm   1 mph 92% 0.17 in 11 W/m2
21:01 58.3 °F 56.3 °F 29.9 in SW 0.9 mph 1 mph 93% 0.18 in 9 W/m2
21:06 58.1 °F 55.8 °F 29.9 in Calm     92% 0.18 in 7 W/m2
21:11 57.9 °F 55.9 °F 29.9 in Calm     93% 0.18 in 7 W/m2
21:16 57.7 °F 55.8 °F 29.9 in Calm   1 mph 93% 0.16 in 5 W/m2
21:21 57.6 °F 55.6 °F 29.9 in Calm   1 mph 93% 0.15 in 5 W/m2
21:26 57.6 °F 55.6 °F 29.9 in Calm   1 mph 93% 0.13 in 0 W/m2
21:31 57.4 °F 55.6 °F 29.9 in SW 0.9 mph 2 mph 94% 0.13 in 0 W/m2
21:36 57.2 °F 55.4 °F 29.9 in Calm   1 mph 94% 0.13 in 0 W/m2
21:41 57 °F 55.2 °F 29.9 in Calm   2 mph 94% 0.13 in 0 W/m2
21:46 57 °F 55.2 °F 29.9 in Calm     94% 0.11 in 0 W/m2
21:51 57 °F 55.2 °F 29.9 in SW 0.9 mph 2 mph 94% 0.1 in 0 W/m2
21:56 56.8 °F 55.2 °F 29.9 in Calm   1 mph 94% 0.11 in 0 W/m2
22:02 56.8 °F 55.2 °F 29.9 in SW 0.9 mph 1 mph 94% 0.11 in 0 W/m2
22:07 56.7 °F 55 °F 29.9 in Calm   1 mph 94% 0.12 in 0 W/m2
22:12 56.7 °F 55.2 °F 29.9 in Calm   1 mph 95% 0.11 in 0 W/m2
22:17 56.7 °F 55.2 °F 29.9 in Calm   1 mph 95% 0.07 in 0 W/m2
22:22 56.7 °F 55.2 °F 29.9 in Calm     95% 0.06 in 0 W/m2
22:27 56.7 °F 55.2 °F 29.9 in Calm   1 mph 95% 0.05 in 0 W/m2
22:32 56.8 °F 55.4 °F 29.9 in Calm     95% 0.04 in 0 W/m2
22:37 56.8 °F 55.4 °F 29.9 in Calm     95% 0.04 in 0 W/m2
22:43 56.8 °F 55.4 °F 29.9 in Calm     95% 0.04 in 0 W/m2
22:48 56.8 °F 55.4 °F 29.9 in SW 1 mph 1 mph 95% 0.04 in 0 W/m2
22:53 56.8 °F 55.4 °F 29.9 in SW 0.9 mph 2 mph 95% 0.04 in 0 W/m2
22:58 56.8 °F 55.4 °F 29.9 in SW 2 mph 2 mph 95% 0.03 in 0 W/m2
23:03 56.8 °F 55.4 °F 29.9 in WSW 0.9 mph 3 mph 95% 0.02 in 0 W/m2
23:08 56.8 °F 55.4 °F 29.9 in WSW 2 mph 2 mph 95% 0.02 in 0 W/m2
23:13 56.8 °F 55.8 °F 29.9 in Calm   3 mph 96% 0.01 in 0 W/m2
23:18 56.8 °F 55.8 °F 29.9 in WSW 2 mph 2 mph 96% 0 in 0 W/m2
23:23 56.8 °F 55.8 °F 29.9 in West 0.9 mph 4 mph 96% 0 in 0 W/m2
23:28 56.8 °F 55.8 °F 29.9 in West 2 mph 3 mph 96% 0 in 0 W/m2
23:33 56.8 °F 55.8 °F 29.9 in West 0.9 mph 3 mph 96% 0 in 0 W/m2
23:38 56.8 °F 55.4 °F 29.9 in West 0.9 mph 2 mph 95% 0 in 0 W/m2
23:44 56.7 °F 55.6 °F 29.9 in Calm   3 mph 96% 0 in 0 W/m2
23:49 56.7 °F 55.6 °F 29.9 in West 0.9 mph 1 mph 96% 0 in 0 W/m2
23:54 56.7 °F 55.6 °F 29.9 in Calm     96% 0 in 0 W/m2
23:59 56.7 °F 55.6 °F 29.9 in Calm     96% 0 in 0 W/m2
Juneau County Weather
Compliments of Weather Underground - 4 mb